BLX930P ESGG-ESSA
Flight info
| Callsign | BLX930P |
|---|---|
| Flight time | 0h 41m |
| Altitude | 37000 |
| Route | LABAN N873 ARS T317 ELTOK |
| Aircraft | B38M/M-SDE1FGHILORVWXY/HB1 |
Departure
| Time | 2026-05-04 12:53 |
|---|---|
| Airport | Göteborg Landvetter Airport (ESGG) |
Arrival
| Time | 2026-05-04 13:34 |
|---|---|
| Airport | Stockholm-Arlanda Airport (ESSA) |
| Time | Latitude | Longitude | Altitude | Speed | Heading |
|---|---|---|---|---|---|
| 2026-05-04 12:34 | 57.66669 | 12.29214 | 518 ft | 0 kts | 116° |
| 2026-05-04 12:45 | 57.66670 | 12.29210 | 518 ft | 1 kts | 116° |
| 2026-05-04 12:45 | 57.66678 | 12.29181 | 518 ft | 3 kts | 116° |
| 2026-05-04 12:46 | 57.66686 | 12.29151 | 518 ft | 2 kts | 116° |
| 2026-05-04 12:46 | 57.66693 | 12.29119 | 518 ft | 3 kts | 98° |
| 2026-05-04 12:46 | 57.66691 | 12.29087 | 518 ft | 3 kts | 59° |
| 2026-05-04 12:46 | 57.66678 | 12.29063 | 518 ft | 3 kts | 29° |
| 2026-05-04 12:47 | 57.66664 | 12.29049 | 518 ft | 1 kts | 26° |
| 2026-05-04 12:47 | 57.66660 | 12.29045 | 518 ft | 0 kts | 26° |
| 2026-05-04 12:49 | 57.66671 | 12.29055 | 518 ft | 6 kts | 26° |
| 2026-05-04 12:50 | 57.66751 | 12.29099 | 518 ft | 16 kts | 344° |
| 2026-05-04 12:50 | 57.66823 | 12.28996 | 518 ft | 10 kts | 355° |
| 2026-05-04 12:50 | 57.66914 | 12.29066 | 518 ft | 21 kts | 26° |
| 2026-05-04 12:50 | 57.67039 | 12.29181 | 518 ft | 20 kts | 26° |
| 2026-05-04 12:51 | 57.67174 | 12.29303 | 518 ft | 21 kts | 26° |
| 2026-05-04 12:51 | 57.67305 | 12.29424 | 518 ft | 15 kts | 27° |
| 2026-05-04 12:51 | 57.67411 | 12.29453 | 518 ft | 15 kts | 324° |
| 2026-05-04 12:51 | 57.67455 | 12.29301 | 518 ft | 9 kts | 287° |
| 2026-05-04 12:52 | 57.67456 | 12.29288 | 518 ft | 0 kts | 283° |
| 2026-05-04 12:52 | 57.67458 | 12.29275 | 518 ft | 5 kts | 278° |
| 2026-05-04 12:52 | 57.67451 | 12.29129 | 516 ft | 12 kts | 254° |
| 2026-05-04 12:53 | 57.67415 | 12.29006 | 518 ft | 17 kts | 212° |
| 2026-05-04 12:53 | 57.67091 | 12.28715 | 516 ft | 101 kts | 205° |
| 2026-05-04 12:53 | 57.66226 | 12.27924 | 832 ft | 156 kts | 214° |
| 2026-05-04 12:53 | 57.65175 | 12.26874 | 1768 ft | 191 kts | 213° |
| 2026-05-04 12:54 | 57.63993 | 12.25765 | 3364 ft | 193 kts | 211° |
| 2026-05-04 12:54 | 57.62736 | 12.24656 | 4776 ft | 208 kts | 206° |
| 2026-05-04 12:54 | 57.61226 | 12.24385 | 6121 ft | 233 kts | 176° |
| 2026-05-04 12:54 | 57.59643 | 12.25593 | 7283 ft | 263 kts | 149° |
| 2026-05-04 12:55 | 57.58376 | 12.28268 | 8390 ft | 291 kts | 121° |
| 2026-05-04 12:55 | 57.57701 | 12.31930 | 9565 ft | 309 kts | 99° |
| 2026-05-04 12:55 | 57.57732 | 12.36017 | 10659 ft | 324 kts | 79° |
| 2026-05-04 12:55 | 57.58385 | 12.40066 | 11809 ft | 331 kts | 69° |
| 2026-05-04 12:56 | 57.59190 | 12.44156 | 12956 ft | 341 kts | 68° |
| 2026-05-04 12:56 | 57.60046 | 12.48357 | 14033 ft | 351 kts | 67° |
| 2026-05-04 12:56 | 57.60931 | 12.52633 | 15117 ft | 356 kts | 67° |
| 2026-05-04 12:56 | 57.61955 | 12.56876 | 16139 ft | 360 kts | 53° |
| 2026-05-04 12:57 | 57.63644 | 12.60257 | 17161 ft | 356 kts | 31° |
| 2026-05-04 12:57 | 57.65680 | 12.62933 | 18114 ft | 362 kts | 29° |
| 2026-05-04 12:57 | 57.67763 | 12.65644 | 18982 ft | 367 kts | 28° |
| 2026-05-04 12:57 | 57.69879 | 12.68371 | 19847 ft | 372 kts | 28° |
| 2026-05-04 12:58 | 57.72031 | 12.71134 | 20694 ft | 378 kts | 28° |
| 2026-05-04 12:58 | 57.74215 | 12.73931 | 21528 ft | 383 kts | 28° |
| 2026-05-04 12:58 | 57.76430 | 12.76770 | 22362 ft | 388 kts | 28° |
| 2026-05-04 12:58 | 57.78673 | 12.79649 | 23169 ft | 394 kts | 28° |
| 2026-05-04 12:59 | 57.80948 | 12.82573 | 23872 ft | 399 kts | 28° |
| 2026-05-04 12:59 | 57.83246 | 12.85530 | 24634 ft | 401 kts | 28° |
| 2026-05-04 12:59 | 57.85553 | 12.88503 | 25390 ft | 403 kts | 28° |
| 2026-05-04 12:59 | 57.87872 | 12.91497 | 26114 ft | 406 kts | 28° |
| 2026-05-04 13:00 | 57.90205 | 12.94514 | 26838 ft | 409 kts | 28° |
| 2026-05-04 13:00 | 57.92556 | 12.97559 | 27529 ft | 412 kts | 28° |
| 2026-05-04 13:00 | 57.94923 | 13.00629 | 28215 ft | 415 kts | 28° |
| 2026-05-04 13:00 | 57.96503 | 13.02681 | 28666 ft | 417 kts | 29° |
| 2026-05-04 13:01 | 57.98900 | 13.05799 | 29334 ft | 420 kts | 29° |
| 2026-05-04 13:01 | 58.02128 | 13.10006 | 30138 ft | 424 kts | 29° |
| 2026-05-04 13:01 | 58.03741 | 13.12111 | 30473 ft | 427 kts | 29° |
| 2026-05-04 13:01 | 58.06193 | 13.15316 | 30957 ft | 431 kts | 29° |
| 2026-05-04 13:02 | 58.08671 | 13.18562 | 31433 ft | 435 kts | 29° |
| 2026-05-04 13:02 | 58.11164 | 13.21831 | 31934 ft | 439 kts | 29° |
| 2026-05-04 13:02 | 58.13683 | 13.25139 | 32402 ft | 443 kts | 29° |
| 2026-05-04 13:02 | 58.16211 | 13.28514 | 32863 ft | 448 kts | 32° |
| 2026-05-04 13:03 | 58.18437 | 13.32761 | 33369 ft | 460 kts | 46° |
| 2026-05-04 13:03 | 58.20505 | 13.37413 | 33787 ft | 463 kts | 44° |
| 2026-05-04 13:03 | 58.22620 | 13.42032 | 34192 ft | 466 kts | 45° |
| 2026-05-04 13:03 | 58.24733 | 13.46700 | 34655 ft | 467 kts | 45° |
| 2026-05-04 13:04 | 58.26845 | 13.51395 | 35139 ft | 468 kts | 45° |
| 2026-05-04 13:04 | 58.28955 | 13.56102 | 35595 ft | 469 kts | 46° |
| 2026-05-04 13:04 | 58.31074 | 13.60835 | 36068 ft | 470 kts | 46° |
| 2026-05-04 13:04 | 58.33191 | 13.65576 | 36529 ft | 471 kts | 46° |
| 2026-05-04 13:05 | 58.35318 | 13.70346 | 36757 ft | 475 kts | 46° |
| 2026-05-04 13:05 | 58.39671 | 13.80142 | 36741 ft | 494 kts | 46° |
| 2026-05-04 13:06 | 58.44158 | 13.90284 | 36741 ft | 504 kts | 47° |
| 2026-05-04 13:06 | 58.48672 | 14.00529 | 36746 ft | 504 kts | 47° |
| 2026-05-04 13:07 | 58.53150 | 14.10738 | 36749 ft | 504 kts | 47° |
| 2026-05-04 13:07 | 58.57653 | 14.21047 | 36742 ft | 505 kts | 47° |
| 2026-05-04 13:08 | 58.62152 | 14.31394 | 36747 ft | 505 kts | 47° |
| 2026-05-04 13:08 | 58.66648 | 14.41779 | 36747 ft | 506 kts | 47° |
| 2026-05-04 13:09 | 58.71137 | 14.52192 | 36744 ft | 506 kts | 47° |
| 2026-05-04 13:09 | 58.75619 | 14.62637 | 36738 ft | 507 kts | 47° |
| 2026-05-04 13:10 | 58.80102 | 14.73128 | 36726 ft | 507 kts | 47° |
| 2026-05-04 13:10 | 58.82342 | 14.78390 | 36509 ft | 507 kts | 47° |
| 2026-05-04 13:10 | 58.84562 | 14.83614 | 35979 ft | 500 kts | 47° |
| 2026-05-04 13:10 | 58.86769 | 14.88818 | 35192 ft | 501 kts | 47° |
| 2026-05-04 13:11 | 58.88974 | 14.94030 | 34419 ft | 500 kts | 47° |
| 2026-05-04 13:11 | 58.91168 | 14.99229 | 33621 ft | 500 kts | 47° |
| 2026-05-04 13:11 | 58.93363 | 15.04444 | 32662 ft | 500 kts | 47° |
| 2026-05-04 13:11 | 58.95564 | 15.09684 | 31720 ft | 499 kts | 47° |
| 2026-05-04 13:12 | 58.97757 | 15.14914 | 31039 ft | 501 kts | 47° |
| 2026-05-04 13:12 | 58.99954 | 15.20167 | 30545 ft | 504 kts | 48° |
| 2026-05-04 13:12 | 59.02169 | 15.25474 | 29990 ft | 507 kts | 48° |
| 2026-05-04 13:12 | 59.04384 | 15.30794 | 29334 ft | 506 kts | 48° |
| 2026-05-04 13:13 | 59.06593 | 15.36108 | 28726 ft | 503 kts | 48° |
| 2026-05-04 13:13 | 59.08753 | 15.41321 | 28168 ft | 500 kts | 48° |
| 2026-05-04 13:13 | 59.10957 | 15.46649 | 27596 ft | 497 kts | 48° |
| 2026-05-04 13:13 | 59.13112 | 15.51870 | 27029 ft | 493 kts | 48° |
| 2026-05-04 13:14 | 59.15224 | 15.56998 | 26482 ft | 490 kts | 48° |
| 2026-05-04 13:14 | 59.17347 | 15.62160 | 25930 ft | 487 kts | 48° |
| 2026-05-04 13:14 | 59.19455 | 15.67297 | 25389 ft | 483 kts | 48° |
| 2026-05-04 13:14 | 59.21542 | 15.72414 | 24815 ft | 480 kts | 49° |
| 2026-05-04 13:15 | 59.23618 | 15.77505 | 24324 ft | 477 kts | 49° |
| 2026-05-04 13:15 | 59.25676 | 15.82564 | 23813 ft | 475 kts | 49° |
| 2026-05-04 13:15 | 59.27721 | 15.87601 | 23290 ft | 472 kts | 49° |
| 2026-05-04 13:15 | 59.29752 | 15.92615 | 22688 ft | 468 kts | 49° |
| 2026-05-04 13:16 | 59.31768 | 15.97599 | 22168 ft | 465 kts | 49° |
| 2026-05-04 13:16 | 59.33765 | 16.02550 | 21651 ft | 461 kts | 49° |
| 2026-05-04 13:16 | 59.35742 | 16.07459 | 21156 ft | 458 kts | 49° |
| 2026-05-04 13:16 | 59.37706 | 16.12349 | 20652 ft | 454 kts | 49° |
| 2026-05-04 13:17 | 59.39648 | 16.17189 | 20160 ft | 450 kts | 49° |
| 2026-05-04 13:17 | 59.41574 | 16.22004 | 19617 ft | 446 kts | 49° |
| 2026-05-04 13:17 | 59.43484 | 16.26784 | 19142 ft | 443 kts | 49° |
| 2026-05-04 13:17 | 59.45376 | 16.31531 | 18684 ft | 440 kts | 49° |
| 2026-05-04 13:18 | 59.47254 | 16.36252 | 18206 ft | 437 kts | 49° |
| 2026-05-04 13:18 | 59.49119 | 16.40950 | 17522 ft | 435 kts | 49° |
| 2026-05-04 13:18 | 59.50985 | 16.45659 | 16623 ft | 438 kts | 49° |
| 2026-05-04 13:18 | 59.52854 | 16.50386 | 15845 ft | 437 kts | 49° |
| 2026-05-04 13:19 | 59.54701 | 16.55065 | 15376 ft | 428 kts | 49° |
| 2026-05-04 13:19 | 59.56505 | 16.59647 | 14952 ft | 418 kts | 50° |
| 2026-05-04 13:19 | 59.58286 | 16.64117 | 14529 ft | 410 kts | 46° |
| 2026-05-04 13:19 | 59.60417 | 16.67689 | 14053 ft | 399 kts | 29° |
| 2026-05-04 13:20 | 59.62693 | 16.70821 | 13663 ft | 398 kts | 31° |
| 2026-05-04 13:20 | 59.64938 | 16.73986 | 13231 ft | 395 kts | 31° |
| 2026-05-04 13:20 | 59.67164 | 16.77143 | 12790 ft | 392 kts | 31° |
| 2026-05-04 13:20 | 59.69375 | 16.80287 | 12364 ft | 389 kts | 31° |
| 2026-05-04 13:21 | 59.71559 | 16.83399 | 11956 ft | 386 kts | 31° |
| 2026-05-04 13:21 | 59.73729 | 16.86498 | 11540 ft | 383 kts | 31° |
| 2026-05-04 13:21 | 59.75880 | 16.89573 | 11136 ft | 379 kts | 32° |
| 2026-05-04 13:21 | 59.78009 | 16.92624 | 10721 ft | 375 kts | 32° |
| 2026-05-04 13:22 | 59.80081 | 16.95598 | 10326 ft | 361 kts | 32° |
| 2026-05-04 13:22 | 59.81865 | 16.99044 | 9878 ft | 362 kts | 53° |
| 2026-05-04 13:22 | 59.82823 | 17.03625 | 9439 ft | 361 kts | 79° |
| 2026-05-04 13:22 | 59.83069 | 17.08478 | 9001 ft | 354 kts | 82° |
| 2026-05-04 13:23 | 59.83854 | 17.12994 | 8534 ft | 342 kts | 60° |
| 2026-05-04 13:23 | 59.85039 | 17.17009 | 8097 ft | 333 kts | 57° |
| 2026-05-04 13:23 | 59.86223 | 17.20922 | 7633 ft | 328 kts | 57° |
| 2026-05-04 13:23 | 59.87384 | 17.24754 | 7160 ft | 317 kts | 57° |
| 2026-05-04 13:24 | 59.88504 | 17.28430 | 6735 ft | 304 kts | 57° |
| 2026-05-04 13:24 | 59.89470 | 17.32506 | 6300 ft | 292 kts | 70° |
| 2026-05-04 13:25 | 59.90421 | 17.40072 | 5491 ft | 273 kts | 86° |
| 2026-05-04 13:25 | 59.90486 | 17.43786 | 5147 ft | 262 kts | 90° |
| 2026-05-04 13:25 | 59.90516 | 17.47330 | 4828 ft | 251 kts | 90° |
| 2026-05-04 13:25 | 59.90551 | 17.50757 | 4467 ft | 244 kts | 90° |
| 2026-05-04 13:26 | 59.90582 | 17.54089 | 4093 ft | 237 kts | 90° |
| 2026-05-04 13:26 | 59.90617 | 17.57336 | 3801 ft | 231 kts | 90° |
| 2026-05-04 13:26 | 59.90554 | 17.60460 | 3562 ft | 222 kts | 105° |
| 2026-05-04 13:26 | 59.90135 | 17.63346 | 3324 ft | 212 kts | 112° |
| 2026-05-04 13:27 | 59.89665 | 17.66056 | 3186 ft | 204 kts | 113° |
| 2026-05-04 13:27 | 59.89201 | 17.68701 | 3103 ft | 201 kts | 113° |
| 2026-05-04 13:27 | 59.88732 | 17.71340 | 3001 ft | 203 kts | 113° |
| 2026-05-04 13:27 | 59.88270 | 17.73987 | 2940 ft | 202 kts | 114° |
| 2026-05-04 13:28 | 59.87788 | 17.76618 | 2817 ft | 201 kts | 117° |
| 2026-05-04 13:28 | 59.87232 | 17.79143 | 2701 ft | 198 kts | 118° |
| 2026-05-04 13:28 | 59.86664 | 17.81639 | 2608 ft | 198 kts | 118° |
| 2026-05-04 13:28 | 59.86097 | 17.84125 | 2531 ft | 197 kts | 118° |
| 2026-05-04 13:29 | 59.85535 | 17.86628 | 2477 ft | 199 kts | 118° |
| 2026-05-04 13:29 | 59.84972 | 17.89139 | 2450 ft | 199 kts | 118° |
| 2026-05-04 13:29 | 59.84408 | 17.91647 | 2456 ft | 199 kts | 118° |
| 2026-05-04 13:29 | 59.83702 | 17.93958 | 2446 ft | 192 kts | 141° |
| 2026-05-04 13:30 | 59.82678 | 17.95601 | 2467 ft | 189 kts | 149° |
| 2026-05-04 13:30 | 59.81569 | 17.96934 | 2456 ft | 183 kts | 167° |
| 2026-05-04 13:30 | 59.80378 | 17.97297 | 2464 ft | 163 kts | 187° |
| 2026-05-04 13:30 | 59.79288 | 17.96995 | 2466 ft | 156 kts | 196° |
| 2026-05-04 13:31 | 59.78244 | 17.96602 | 2482 ft | 154 kts | 196° |
| 2026-05-04 13:31 | 59.77190 | 17.96212 | 2452 ft | 155 kts | 195° |
| 2026-05-04 13:31 | 59.76135 | 17.95824 | 2198 ft | 154 kts | 195° |
| 2026-05-04 13:31 | 59.75099 | 17.95450 | 1958 ft | 144 kts | 195° |
| 2026-05-04 13:32 | 59.74148 | 17.95135 | 1674 ft | 134 kts | 194° |
| 2026-05-04 13:32 | 59.73248 | 17.94859 | 1425 ft | 129 kts | 195° |
| 2026-05-04 13:32 | 59.72365 | 17.94580 | 1340 ft | 129 kts | 195° |
| 2026-05-04 13:32 | 59.71496 | 17.94259 | 1114 ft | 125 kts | 197° |
| 2026-05-04 13:33 | 59.70633 | 17.93878 | 912 ft | 129 kts | 196° |
| 2026-05-04 13:33 | 59.69736 | 17.93519 | 755 ft | 131 kts | 193° |
| 2026-05-04 13:33 | 59.68846 | 17.93206 | 604 ft | 128 kts | 194° |
| 2026-05-04 13:33 | 59.67978 | 17.92872 | 450 ft | 125 kts | 192° |
| 2026-05-04 13:34 | 59.67133 | 17.92568 | 265 ft | 122 kts | 194° |
| 2026-05-04 13:34 | 59.66329 | 17.92276 | 133 ft | 110 kts | 193° |
| 2026-05-04 13:34 | 59.65666 | 17.92025 | 110 ft | 76 kts | 191° |
| 2026-05-04 13:34 | 59.65318 | 17.91903 | 108 ft | 37 kts | 186° |
| 2026-05-04 13:35 | 59.65075 | 17.91981 | 106 ft | 23 kts | 159° |
| 2026-05-04 13:35 | 59.65196 | 17.92211 | 109 ft | 25 kts | 12° |
| 2026-05-04 13:35 | 59.65380 | 17.92290 | 107 ft | 31 kts | 21° |
| 2026-05-04 13:36 | 59.65524 | 17.92601 | 108 ft | 28 kts | 71° |
| 2026-05-04 13:36 | 59.65574 | 17.92967 | 112 ft | 25 kts | 75° |
| 2026-05-04 13:36 | 59.65619 | 17.93312 | 110 ft | 25 kts | 76° |
| 2026-05-04 13:36 | 59.65661 | 17.93639 | 115 ft | 24 kts | 76° |
| 2026-05-04 13:37 | 59.65605 | 17.93851 | 117 ft | 19 kts | 162° |
| 2026-05-04 13:37 | 59.65507 | 17.93903 | 116 ft | 8 kts | 167° |
| 2026-05-04 13:37 | 59.65473 | 17.93845 | 115 ft | 9 kts | 251° |
| 2026-05-04 13:37 | 59.65466 | 17.93784 | 114 ft | 3 kts | 257° |
| 2026-05-04 13:38 | 59.65463 | 17.93764 | 114 ft | 0 kts | 257° |